createdAt,value
2022-10-13T00:19:18.298Z,10.3
2022-10-13T00:29:19.117Z,10.4
2022-10-13T00:39:26.932Z,10.4
2022-10-13T00:49:20.432Z,10.4
2022-10-13T00:59:20.810Z,10.5
2022-10-13T01:09:21.697Z,10.4
2022-10-13T01:29:22.442Z,10.5
2022-10-13T02:19:25.303Z,10.6
2022-10-13T02:49:26.769Z,10.7
2022-10-13T02:59:27.105Z,10.8
2022-10-13T03:09:27.624Z,10.8
2022-10-13T03:29:29.408Z,10.8
2022-10-13T03:49:30.013Z,10.9
2022-10-13T03:59:34.306Z,11
2022-10-13T04:09:31.614Z,11
2022-10-13T04:19:32.014Z,11.1
2022-10-13T04:29:39.302Z,11.2
2022-10-13T04:39:32.650Z,11.3
2022-10-13T04:49:33.238Z,11.3
2022-10-13T04:59:33.348Z,11.4
2022-10-13T05:09:34.049Z,11.4
2022-10-13T05:19:41.685Z,11.4
2022-10-13T05:29:35.094Z,11.4
2022-10-13T05:39:42.302Z,11.4
2022-10-13T05:49:36.237Z,11.4
2022-10-13T05:59:37.230Z,11.5
2022-10-13T06:09:38.104Z,11.5
2022-10-13T06:29:44.255Z,11.6
2022-10-13T06:39:45.028Z,11.7
2022-10-13T06:59:46.986Z,11.9
2022-10-13T07:09:47.057Z,12
2022-10-13T07:19:47.695Z,12.1
2022-10-13T07:29:48.013Z,12.3
2022-10-13T07:39:48.071Z,12.7
2022-10-13T07:49:48.109Z,13
2022-10-13T07:59:48.336Z,13.1
2022-10-13T08:19:49.977Z,13.4
2022-10-13T08:29:50.334Z,13.6
2022-10-13T08:39:51.218Z,13.7
2022-10-13T08:49:53.502Z,13.9
2022-10-13T08:59:51.926Z,14.2
2022-10-13T09:09:52.184Z,14.3
2022-10-13T09:19:52.673Z,14.4
2022-10-13T09:29:53.678Z,14.6
2022-10-13T09:49:54.359Z,15.9
2022-10-13T09:59:55.377Z,16.3
2022-10-13T10:19:57.047Z,17.1
2022-10-13T10:39:58.565Z,16.8
2022-10-13T10:49:59.175Z,16.9
2022-10-13T10:59:59.698Z,17.3
2022-10-13T11:40:01.502Z,17.8
2022-10-13T11:50:01.629Z,17.2
2022-10-13T12:00:08.893Z,16.9
2022-10-13T12:10:09.904Z,16.8
2022-10-13T12:20:03.391Z,16.6
2022-10-13T12:30:03.980Z,16.4
2022-10-13T13:00:12.319Z,16
2022-10-13T13:10:06.126Z,15.7
2022-10-13T13:20:06.342Z,15.1
2022-10-13T13:40:07.026Z,14.8
2022-10-13T13:50:07.748Z,14.8
2022-10-13T14:10:08.736Z,14.8
2022-10-13T14:20:09.794Z,14.8
2022-10-13T14:30:17.398Z,14.8
2022-10-13T14:40:11.274Z,14.7
2022-10-13T15:00:11.849Z,14.5
2022-10-13T15:10:12.780Z,14.3
2022-10-13T15:20:20.102Z,14.3
2022-10-13T15:30:13.705Z,14.2
2022-10-13T15:50:14.651Z,14.2
2022-10-13T16:00:27.958Z,14.2
2022-10-13T16:20:21.858Z,14
2022-10-13T16:30:36.655Z,14.1
2022-10-13T16:40:29.874Z,14
2022-10-13T16:50:23.620Z,13.9
2022-10-13T17:00:24.326Z,13.9
2022-10-13T17:20:24.733Z,13.9
2022-10-13T17:40:25.675Z,13.9
2022-10-13T17:50:26.513Z,13.7
2022-10-13T18:00:26.961Z,13.2
2022-10-13T18:10:27.696Z,13.1
2022-10-13T18:20:27.922Z,13.1
2022-10-13T18:30:28.461Z,13.2
2022-10-13T18:40:28.794Z,13.1
2022-10-13T18:50:29.784Z,13.2
2022-10-13T19:00:30.813Z,13.1
2022-10-13T19:10:30.925Z,13.2
2022-10-13T19:20:31.604Z,13.2
2022-10-13T19:30:32.392Z,13.2
2022-10-13T19:40:32.828Z,13.2
2022-10-13T19:50:32.854Z,13.2
2022-10-13T20:00:33.097Z,13.2
2022-10-13T20:10:33.574Z,13.2
2022-10-13T20:20:34.516Z,13.1
2022-10-13T20:30:35.179Z,13.1
2022-10-13T20:50:35.831Z,13.1
2022-10-13T21:00:36.462Z,13
2022-10-13T21:10:37.077Z,13
2022-10-13T21:30:38.209Z,12.9
2022-10-13T21:40:38.846Z,12.8
2022-10-13T21:50:39.529Z,12.7
2022-10-13T22:00:40.159Z,12.7
2022-10-13T22:30:41.465Z,12.5
2022-10-13T22:40:48.608Z,12.5
2022-10-13T22:50:49.110Z,12.5
2022-10-13T23:00:43.096Z,12.5
2022-10-13T23:10:43.997Z,12.5
2022-10-13T23:20:55.913Z,12.5
2022-10-13T23:30:45.386Z,12.5
2022-10-13T23:40:46.265Z,12.5
2022-10-13T23:50:46.674Z,12.5
